Time;durP1;ratioP1;P1;durP2;ratioP2;P2;SDS_P1;SDS_P2;PMS_P1;PMS_P2;Temp;Humidity;BMP_temperature;BMP_pressure;BME280_temperature;BME280_humidity;BME280_pressure;Samples;Min_cycle;Max_cycle;Signal;HPM_P1;HPM_P2
2023/04/27 00:02:00;;;;;;;0.77;0.77;;;;;;;;;;5071609;28;20205;-92
2023/04/27 00:04:27;;;;;;;0.67;0.67;;;;;;;;;;5066528;28;20630;-93
2023/04/27 00:06:54;;;;;;;0.80;0.80;;;;;;;;;;5064638;28;20263;-96
2023/04/27 00:09:21;;;;;;;0.80;0.80;;;;;;;;;;5029213;28;20274;-94
2023/04/27 00:11:48;;;;;;;0.80;0.80;;;;;;;;;;5070926;28;20215;-94
2023/04/27 00:14:17;;;;;;;0.70;0.70;;;;;;;;;;5035374;28;20198;-94
2023/04/27 00:16:44;;;;;;;0.60;0.60;;;;;;;;;;5043934;28;20667;-94
2023/04/27 00:19:12;;;;;;;0.73;0.73;;;;;;;;;;5071214;28;20205;-95
2023/04/27 00:21:39;;;;;;;0.80;0.80;;;;;;;;;;5059200;28;20234;-95
2023/04/27 00:24:07;;;;;;;0.70;0.70;;;;;;;;;;5064461;28;20206;-94
2023/04/27 00:26:35;;;;;;;1.00;0.90;;;;;;;;;;5064505;28;20219;-94
2023/04/27 00:29:01;;;;;;;3.83;1.17;;;;;;;;;;5060739;28;20224;-94
2023/04/27 00:31:30;;;;;;;0.80;0.80;;;;;;;;;;5057113;28;20205;-96
2023/04/27 00:33:57;;;;;;;0.80;0.80;;;;;;;;;;5065585;28;20221;-94
2023/04/27 00:36:24;;;;;;;0.87;0.87;;;;;;;;;;5059097;28;20204;-93
2023/04/27 00:38:52;;;;;;;1.03;0.93;;;;;;;;;;5072508;28;20208;-95
2023/04/27 00:41:19;;;;;;;0.70;0.70;;;;;;;;;;5045745;28;20209;-93
2023/04/27 00:43:46;;;;;;;0.70;0.70;;;;;;;;;;5054291;28;20220;-95
2023/04/27 00:46:14;;;;;;;0.80;0.80;;;;;;;;;;5052123;28;20215;-95
2023/04/27 00:48:43;;;;;;;0.73;0.73;;;;;;;;;;5038597;28;20226;-93
2023/04/27 00:51:10;;;;;;;0.50;0.50;;;;;;;;;;5058231;28;20209;-94
2023/04/27 00:53:38;;;;;;;0.63;0.63;;;;;;;;;;5071223;28;20213;-95
2023/04/27 00:56:05;;;;;;;0.70;0.70;;;;;;;;;;5045343;28;20232;-93
2023/04/27 00:58:32;;;;;;;0.47;0.47;;;;;;;;;;5070711;28;20212;-95
2023/04/27 01:01:00;;;;;;;1.90;0.83;;;;;;;;;;5070948;28;20251;-96
2023/04/27 01:03:27;;;;;;;2.20;0.50;;;;;;;;;;5060884;28;20209;-92
2023/04/27 01:06:00;;;;;;;3.90;1.07;;;;;;;;;;5069153;28;20254;-93
2023/04/27 01:08:27;;;;;;;0.60;0.60;;;;;;;;;;5040051;28;20280;-92
2023/04/27 01:10:54;;;;;;;1.37;0.80;;;;;;;;;;5069938;28;20262;-94
2023/04/27 01:13:22;;;;;;;0.77;0.77;;;;;;;;;;5042067;28;20202;-93
2023/04/27 01:15:49;;;;;;;0.83;0.70;;;;;;;;;;5065256;28;20210;-94
2023/04/27 01:18:16;;;;;;;0.67;0.67;;;;;;;;;;5050883;28;20363;-96
2023/04/27 01:20:43;;;;;;;0.80;0.80;;;;;;;;;;5037702;28;20968;-96
2023/04/27 01:23:15;;;;;;;0.70;0.70;;;;;;;;;;5050802;28;20251;-94
2023/04/27 01:25:42;;;;;;;0.60;0.60;;;;;;;;;;5038555;28;20208;-96
2023/04/27 01:28:10;;;;;;;1.20;0.80;;;;;;;;;;5032033;28;20265;-95
2023/04/27 01:30:37;;;;;;;0.77;0.77;;;;;;;;;;5059693;28;20215;-92
2023/04/27 01:33:04;;;;;;;0.60;0.60;;;;;;;;;;5058806;28;20239;-93
2023/04/27 01:35:31;;;;;;;0.80;0.80;;;;;;;;;;5070403;28;20197;-94
2023/04/27 01:37:58;;;;;;;0.67;0.67;;;;;;;;;;5069527;28;20221;-95
2023/04/27 01:40:26;;;;;;;0.70;0.70;;;;;;;;;;5059316;28;20663;-94
2023/04/27 01:42:54;;;;;;;0.80;0.80;;;;;;;;;;5067695;28;20221;-95
2023/04/27 01:45:21;;;;;;;0.57;0.57;;;;;;;;;;5042055;28;20613;-93
2023/04/27 01:47:51;;;;;;;1.17;0.80;;;;;;;;;;5057944;28;20304;-93
2023/04/27 01:50:18;;;;;;;0.70;0.70;;;;;;;;;;5042745;28;20202;-95
2023/04/27 01:52:45;;;;;;;0.70;0.70;;;;;;;;;;5067546;28;20210;-94
2023/04/27 01:55:12;;;;;;;0.90;0.90;;;;;;;;;;5064302;28;20216;-93
2023/04/27 01:57:41;;;;;;;0.70;0.70;;;;;;;;;;5058155;28;20237;-95
2023/04/27 02:00:10;;;;;;;0.60;0.60;;;;;;;;;;5074492;28;20219;-94
2023/04/27 02:02:37;;;;;;;0.87;0.87;;;;;;;;;;5074376;28;20713;-92
2023/04/27 02:05:05;;;;;;;0.50;0.50;;;;;;;;;;5075265;28;20667;-94
2023/04/27 02:07:32;;;;;;;0.57;0.57;;;;;;;;;;5074453;28;20217;-94
2023/04/27 02:09:59;;;;;;;0.50;0.50;;;;;;;;;;5074860;28;20205;-93
2023/04/27 02:12:26;;;;;;;0.57;0.57;;;;;;;;;;5075877;28;20208;-93
2023/04/27 02:14:55;;;;;;;0.70;0.70;;;;;;;;;;5074814;28;20216;-93
2023/04/27 02:17:23;;;;;;;0.97;0.90;;;;;;;;;;5073856;28;20209;-93
2023/04/27 02:19:50;;;;;;;0.60;0.60;;;;;;;;;;5053878;28;20214;-94
2023/04/27 02:25:45;;;;;;;0.53;0.53;;;;;;;;;;5073355;28;20181;-94
2023/04/27 02:34:29;;;;;;;1.07;0.53;;;;;;;;;;5014857;28;20645;-95
2023/04/27 02:36:58;;;;;;;0.80;0.80;;;;;;;;;;4998177;28;20211;-94
2023/04/27 02:39:35;;;;;;;0.60;0.60;;;;;;;;;;4997034;28;20208;-93
2023/04/27 02:42:02;;;;;;;0.57;0.57;;;;;;;;;;5006848;28;20221;-94
2023/04/27 02:44:41;;;;;;;0.60;0.60;;;;;;;;;;5034175;28;20744;-94
2023/04/27 02:47:09;;;;;;;0.70;0.70;;;;;;;;;;5042323;28;20598;-94
2023/04/27 02:50:01;;;;;;;0.47;0.47;;;;;;;;;;5058499;28;20630;-94
2023/04/27 02:52:29;;;;;;;0.60;0.60;;;;;;;;;;5050908;28;20655;-95
2023/04/27 02:58:18;;;;;;;0.53;0.53;;;;;;;;;;5026183;28;20245;-94
2023/04/27 03:00:46;;;;;;;0.50;0.50;;;;;;;;;;5069357;28;20217;-96
2023/04/27 03:03:17;;;;;;;0.60;0.60;;;;;;;;;;5072390;28;20683;-94
2023/04/27 03:09:23;;;;;;;0.60;0.60;;;;;;;;;;5075307;28;20591;-94
2023/04/27 03:11:51;;;;;;;0.63;0.63;;;;;;;;;;5073410;28;20205;-93
2023/04/27 03:14:29;;;;;;;0.60;0.60;;;;;;;;;;5073185;28;20266;-93
2023/04/27 03:17:47;;;;;;;0.70;0.70;;;;;;;;;;5047255;28;20208;-93
2023/04/27 03:20:52;;;;;;;0.60;0.60;;;;;;;;;;5053399;28;20271;-94
2023/04/27 03:26:50;;;;;;;0.70;0.70;;;;;;;;;;5054628;28;20183;-93
2023/04/27 03:35:04;;;;;;;0.60;0.60;;;;;;;;;;5036714;28;20234;-93
2023/04/27 03:37:34;;;;;;;0.53;0.53;;;;;;;;;;5056014;28;20201;-91
2023/04/27 03:40:18;;;;;;;0.60;0.60;;;;;;;;;;5036309;28;20210;-94
2023/04/27 03:49:09;;;;;;;0.70;0.70;;;;;;;;;;5020494;28;20285;-92
2023/04/27 03:58:47;;;;;;;0.73;0.73;;;;;;;;;;5038038;28;20634;-93
2023/04/27 04:04:37;;;;;;;1.00;1.00;;;;;;;;;;5034909;28;20600;-95
2023/04/27 04:07:05;;;;;;;0.70;0.70;;;;;;;;;;5043153;28;20259;-92
2023/04/27 04:09:32;;;;;;;0.70;0.70;;;;;;;;;;5039009;28;20321;-94
2023/04/27 04:11:59;;;;;;;0.70;0.70;;;;;;;;;;5038233;28;20628;-92
2023/04/27 04:14:30;;;;;;;0.97;0.97;;;;;;;;;;5044767;28;20214;-94
2023/04/27 04:16:57;;;;;;;1.20;1.10;;;;;;;;;;5050878;28;20213;-93
2023/04/27 04:19:28;;;;;;;0.70;0.70;;;;;;;;;;5051760;28;20223;-94
2023/04/27 04:21:56;;;;;;;0.57;0.57;;;;;;;;;;5047476;28;20217;-93
2023/04/27 04:24:23;;;;;;;0.80;0.80;;;;;;;;;;5043716;28;20265;-94
2023/04/27 04:26:52;;;;;;;1.00;1.00;;;;;;;;;;5051649;28;20216;-95
2023/04/27 04:29:20;;;;;;;1.40;1.30;;;;;;;;;;5039549;28;20234;-92
2023/04/27 04:31:49;;;;;;;1.23;1.13;;;;;;;;;;5050792;28;20206;-91
2023/04/27 04:34:18;;;;;;;1.00;1.00;;;;;;;;;;5025366;28;20265;-93
2023/04/27 04:36:45;;;;;;;0.90;0.90;;;;;;;;;;5052310;28;20206;-95
2023/04/27 04:39:13;;;;;;;0.67;0.67;;;;;;;;;;5051594;28;20205;-94
2023/04/27 04:41:40;;;;;;;0.93;0.93;;;;;;;;;;5038497;28;20748;-94
2023/04/27 04:44:07;;;;;;;0.80;0.80;;;;;;;;;;5052914;28;20822;-94
2023/04/27 04:46:36;;;;;;;1.10;1.00;;;;;;;;;;5048238;28;20755;-92
2023/04/27 04:49:04;;;;;;;1.23;1.13;;;;;;;;;;5047373;28;20248;-95
2023/04/27 04:51:31;;;;;;;2.00;1.73;;;;;;;;;;5045575;28;20207;-95
2023/04/27 04:53:58;;;;;;;1.00;1.00;;;;;;;;;;5046866;28;20202;-93
2023/04/27 04:56:25;;;;;;;1.30;1.30;;;;;;;;;;5046123;28;20277;-92
2023/04/27 04:58:51;;;;;;;1.37;1.27;;;;;;;;;;5045836;28;20700;-92
2023/04/27 05:01:18;;;;;;;2.37;2.17;;;;;;;;;;5030745;28;20213;-92
2023/04/27 05:03:45;;;;;;;1.50;1.40;;;;;;;;;;5053871;28;20221;-92
2023/04/27 05:06:14;;;;;;;1.20;1.10;;;;;;;;;;5043975;28;20220;-93
2023/04/27 05:08:41;;;;;;;3.20;2.87;;;;;;;;;;5054283;28;20244;-94
2023/04/27 05:11:07;;;;;;;1.60;1.50;;;;;;;;;;5055185;28;20200;-94
2023/04/27 05:13:37;;;;;;;1.33;1.23;;;;;;;;;;5055548;28;20197;-95
2023/04/27 05:16:04;;;;;;;1.90;1.57;;;;;;;;;;5055812;28;20202;-93
2023/04/27 05:18:32;;;;;;;1.63;1.50;;;;;;;;;;5057997;28;20236;-94
2023/04/27 05:20:58;;;;;;;1.40;1.30;;;;;;;;;;5054416;28;20263;-92
2023/04/27 05:23:27;;;;;;;1.00;1.00;;;;;;;;;;5056343;28;20644;-95
2023/04/27 05:25:54;;;;;;;3.87;2.33;;;;;;;;;;5055950;28;20210;-94
2023/04/27 05:28:21;;;;;;;1.50;1.40;;;;;;;;;;5060908;28;20305;-93
2023/04/27 05:30:48;;;;;;;3.37;3.07;;;;;;;;;;5056457;28;20213;-94
2023/04/27 05:33:15;;;;;;;2.13;1.77;;;;;;;;;;5062161;28;20595;-93
2023/04/27 05:35:42;;;;;;;2.23;1.97;;;;;;;;;;5070843;28;20219;-95
2023/04/27 05:38:09;;;;;;;4.27;3.37;;;;;;;;;;5063765;28;20194;-95
2023/04/27 05:40:37;;;;;;;22.53;14.00;;;;;;;;;;5053445;28;20240;-92
2023/04/27 05:43:05;;;;;;;7.43;5.40;;;;;;;;;;5055315;28;20207;-94
2023/04/27 05:45:32;;;;;;;5.30;3.87;;;;;;;;;;5053226;28;20293;-93
2023/04/27 05:48:00;;;;;;;2.50;2.30;;;;;;;;;;5067313;28;20201;-94
2023/04/27 05:50:27;;;;;;;4.73;2.97;;;;;;;;;;5065887;28;20229;-93
2023/04/27 05:52:54;;;;;;;2.23;2.03;;;;;;;;;;5045201;28;20297;-96
2023/04/27 05:58:07;;;;;;;6.10;3.97;;;;;;;;;;5038736;28;20201;-94
2023/04/27 06:01:02;;;;;;;3.00;2.80;;;;;;;;;;5048718;28;20217;-94
2023/04/27 06:03:30;;;;;;;1.80;1.70;;;;;;;;;;5052646;28;20241;-94
2023/04/27 06:05:57;;;;;;;1.70;1.60;;;;;;;;;;5062345;28;20225;-95
2023/04/27 06:08:25;;;;;;;1.70;1.60;;;;;;;;;;5049248;28;20213;-94
2023/04/27 06:10:51;;;;;;;1.90;1.67;;;;;;;;;;5054256;28;20682;-94
2023/04/27 06:13:22;;;;;;;2.43;1.70;;;;;;;;;;5060028;28;20216;-93
2023/04/27 06:15:50;;;;;;;2.80;2.23;;;;;;;;;;5039008;28;20217;-95
2023/04/27 06:18:29;;;;;;;2.00;1.90;;;;;;;;;;5050903;28;20218;-95
2023/04/27 06:24:04;;;;;;;1.80;1.70;;;;;;;;;;5071049;28;20303;-92
2023/04/27 06:26:31;;;;;;;2.20;2.00;;;;;;;;;;5060030;28;20665;-95
2023/04/27 06:28:59;;;;;;;2.10;1.90;;;;;;;;;;5058297;28;20236;-95
2023/04/27 06:31:26;;;;;;;4.23;3.20;;;;;;;;;;5057467;28;20206;-95
2023/04/27 06:34:08;;;;;;;2.37;1.97;;;;;;;;;;5051433;28;20241;-94
2023/04/27 06:36:40;;;;;;;3.83;3.10;;;;;;;;;;5039604;28;20221;-94
2023/04/27 06:39:07;;;;;;;3.73;3.40;;;;;;;;;;5058143;28;20206;-96
2023/04/27 06:41:36;;;;;;;4.33;3.90;;;;;;;;;;5059699;28;20193;-95
2023/04/27 06:44:04;;;;;;;5.30;4.80;;;;;;;;;;5052069;28;20260;-95
2023/04/27 06:46:36;;;;;;;2.50;2.30;;;;;;;;;;5039318;28;20277;-93
2023/04/27 06:49:02;;;;;;;2.20;2.00;;;;;;;;;;5045147;28;20237;-93
2023/04/27 06:51:29;;;;;;;10.63;6.93;;;;;;;;;;5053673;28;20215;-95
2023/04/27 06:53:57;;;;;;;4.47;3.57;;;;;;;;;;5053743;28;20206;-94
2023/04/27 06:56:24;;;;;;;3.50;3.20;;;;;;;;;;5053722;28;20210;-95
2023/04/27 06:58:51;;;;;;;4.13;3.80;;;;;;;;;;5052883;28;20208;-95
2023/04/27 07:01:22;;;;;;;3.93;2.70;;;;;;;;;;5031687;28;20210;-95
2023/04/27 07:03:49;;;;;;;3.57;2.43;;;;;;;;;;5056892;28;20739;-94
2023/04/27 07:06:16;;;;;;;5.17;3.00;;;;;;;;;;5050082;28;20211;-94
2023/04/27 07:08:43;;;;;;;8.00;3.80;;;;;;;;;;5050100;28;20205;-96
2023/04/27 07:11:10;;;;;;;3.93;3.10;;;;;;;;;;5054370;28;20206;-94
2023/04/27 07:13:37;;;;;;;4.20;3.50;;;;;;;;;;5054869;28;20221;-94
2023/04/27 07:16:04;;;;;;;2.80;2.60;;;;;;;;;;5054344;28;20206;-94
2023/04/27 07:18:34;;;;;;;4.93;3.43;;;;;;;;;;5054543;28;20221;-95
2023/04/27 07:21:02;;;;;;;9.67;8.60;;;;;;;;;;5054639;28;20206;-95
2023/04/27 07:23:30;;;;;;;4.47;4.07;;;;;;;;;;5059528;28;20255;-95
2023/04/27 07:25:57;;;;;;;4.77;4.37;;;;;;;;;;5044547;28;20689;-95
2023/04/27 07:28:24;;;;;;;4.33;3.33;;;;;;;;;;5051509;28;20205;-96
2023/04/27 07:30:51;;;;;;;3.70;2.97;;;;;;;;;;5053886;28;20639;-94
2023/04/27 07:33:18;;;;;;;5.60;4.47;;;;;;;;;;5053529;28;20241;-94
2023/04/27 07:35:48;;;;;;;4.13;3.37;;;;;;;;;;5053279;28;20266;-95
2023/04/27 07:38:16;;;;;;;10.07;4.30;;;;;;;;;;5049064;28;20210;-94
2023/04/27 07:40:44;;;;;;;5.73;3.13;;;;;;;;;;5045759;28;20292;-96
2023/04/27 07:43:11;;;;;;;4.87;3.87;;;;;;;;;;5048587;28;20238;-95
2023/04/27 07:45:40;;;;;;;3.50;3.13;;;;;;;;;;5046151;28;20224;-95
2023/04/27 07:48:07;;;;;;;4.83;3.83;;;;;;;;;;5053097;28;20232;-95
2023/04/27 07:50:33;;;;;;;5.27;4.17;;;;;;;;;;5053203;28;20236;-94
2023/04/27 07:53:02;;;;;;;3.77;3.43;;;;;;;;;;5053482;28;20213;-96
2023/04/27 07:55:29;;;;;;;4.90;3.73;;;;;;;;;;5053108;28;20271;-93
2023/04/27 07:57:56;;;;;;;4.10;3.70;;;;;;;;;;5039790;28;20263;-93
2023/04/27 08:00:24;;;;;;;6.03;5.33;;;;;;;;;;5040223;28;20260;-96
2023/04/27 08:02:53;;;;;;;6.07;5.30;;;;;;;;;;5033584;28;20206;-95
2023/04/27 08:05:19;;;;;;;5.40;4.40;;;;;;;;;;5046312;28;20201;-95
2023/04/27 08:07:46;;;;;;;7.67;4.10;;;;;;;;;;5026973;28;20261;-95
2023/04/27 08:10:15;;;;;;;7.27;3.87;;;;;;;;;;5052618;28;20221;-94
2023/04/27 08:12:41;;;;;;;6.03;3.87;;;;;;;;;;5025646;28;20222;-94
2023/04/27 08:15:10;;;;;;;4.77;4.37;;;;;;;;;;5015577;28;20211;-94
2023/04/27 08:17:39;;;;;;;10.20;6.20;;;;;;;;;;5052999;28;20263;-94
2023/04/27 08:20:08;;;;;;;4.97;4.53;;;;;;;;;;5051031;28;20236;-94
2023/04/27 08:22:36;;;;;;;8.60;5.33;;;;;;;;;;5033119;28;20223;-93
2023/04/27 08:25:03;;;;;;;7.13;5.67;;;;;;;;;;5049271;28;20224;-93
2023/04/27 08:27:32;;;;;;;6.57;4.63;;;;;;;;;;5043535;28;20219;-93
2023/04/27 08:30:00;;;;;;;8.17;5.43;;;;;;;;;;5049245;28;20226;-94
2023/04/27 08:32:27;;;;;;;5.47;4.57;;;;;;;;;;5052804;28;20198;-93
2023/04/27 08:34:55;;;;;;;6.27;5.00;;;;;;;;;;5052303;28;20237;-95
2023/04/27 08:37:22;;;;;;;5.30;4.53;;;;;;;;;;5052772;28;20229;-95
2023/04/27 08:39:49;;;;;;;4.60;4.20;;;;;;;;;;5048867;28;20270;-94
2023/04/27 08:42:16;;;;;;;6.97;4.47;;;;;;;;;;5032671;28;20222;-94
2023/04/27 08:44:47;;;;;;;4.60;4.30;;;;;;;;;;5046171;28;20209;-93
2023/04/27 08:47:14;;;;;;;5.93;4.30;;;;;;;;;;5044020;28;20210;-93
2023/04/27 08:49:41;;;;;;;6.37;5.13;;;;;;;;;;5038816;28;20692;-94
2023/04/27 08:52:14;;;;;;;5.97;4.30;;;;;;;;;;5052468;28;20212;-93
2023/04/27 08:54:41;;;;;;;7.43;4.90;;;;;;;;;;5052464;28;20208;-92
2023/04/27 08:57:11;;;;;;;5.47;5.03;;;;;;;;;;5052085;28;20754;-93
2023/04/27 08:59:39;;;;;;;6.43;5.00;;;;;;;;;;5031529;28;20690;-93
2023/04/27 09:02:07;;;;;;;4.37;3.97;;;;;;;;;;5046114;28;20210;-93
2023/04/27 09:04:40;;;;;;;4.07;3.63;;;;;;;;;;5052281;28;20287;-90
2023/04/27 09:07:11;;;;;;;4.80;3.97;;;;;;;;;;5037195;28;20276;-91
2023/04/27 09:09:38;;;;;;;7.00;4.47;;;;;;;;;;5041328;28;20851;-90
2023/04/27 09:12:14;;;;;;;4.83;4.33;;;;;;;;;;5052450;28;20290;-91
2023/04/27 09:14:41;;;;;;;4.70;4.30;;;;;;;;;;5052486;28;20212;-92
2023/04/27 09:17:09;;;;;;;6.37;5.80;;;;;;;;;;5038842;28;20244;-91
2023/04/27 09:19:36;;;;;;;6.47;4.53;;;;;;;;;;5052281;28;20213;-91
2023/04/27 09:22:04;;;;;;;5.03;4.20;;;;;;;;;;5038659;28;20209;-92
2023/04/27 09:24:31;;;;;;;4.83;4.40;;;;;;;;;;5051855;28;20213;-92
2023/04/27 09:26:58;;;;;;;5.93;4.13;;;;;;;;;;5038634;28;20743;-92
2023/04/27 09:29:32;;;;;;;5.90;4.10;;;;;;;;;;5040022;28;20229;-91
2023/04/27 09:31:59;;;;;;;6.13;4.57;;;;;;;;;;5051274;28;20646;-89
2023/04/27 09:34:40;;;;;;;5.37;4.97;;;;;;;;;;5038855;28;20281;-91
2023/04/27 09:37:07;;;;;;;6.10;3.87;;;;;;;;;;5021239;28;20210;-92
2023/04/27 09:39:34;;;;;;;6.33;3.90;;;;;;;;;;5047150;28;20214;-91
2023/04/27 09:42:01;;;;;;;5.03;4.20;;;;;;;;;;5052018;28;20202;-90
2023/04/27 09:44:28;;;;;;;5.00;4.10;;;;;;;;;;5051843;28;20275;-92
2023/04/27 09:46:58;;;;;;;5.10;4.53;;;;;;;;;;5042894;28;20218;-92
2023/04/27 09:49:25;;;;;;;5.30;4.80;;;;;;;;;;5034685;28;20698;-92
2023/04/27 09:51:55;;;;;;;4.63;4.23;;;;;;;;;;5051902;28;20229;-92
2023/04/27 09:54:25;;;;;;;6.93;4.40;;;;;;;;;;5051744;28;20581;-92
2023/04/27 09:57:01;;;;;;;6.40;4.27;;;;;;;;;;5051798;28;20239;-92
2023/04/27 09:59:40;;;;;;;3.83;3.50;;;;;;;;;;5051737;28;20613;-92
2023/04/27 10:02:08;;;;;;;4.30;3.90;;;;;;;;;;5038685;28;20264;-90
2023/04/27 10:04:49;;;;;;;4.13;3.73;;;;;;;;;;5051548;28;20202;-91
2023/04/27 10:07:17;;;;;;;5.30;3.87;;;;;;;;;;5037818;28;20215;-91
2023/04/27 10:09:46;;;;;;;4.23;3.93;;;;;;;;;;5041191;28;20701;-91
2023/04/27 10:12:17;;;;;;;4.30;3.63;;;;;;;;;;5051239;28;20348;-93
2023/04/27 10:14:52;;;;;;;9.03;5.53;;;;;;;;;;5054773;28;20297;-91
2023/04/27 10:17:22;;;;;;;6.07;5.23;;;;;;;;;;5035742;28;20280;-91
2023/04/27 10:19:57;;;;;;;5.63;4.17;;;;;;;;;;5048675;28;20206;-91
2023/04/27 10:22:38;;;;;;;12.67;8.63;;;;;;;;;;5054868;28;20599;-91
2023/04/27 10:25:13;;;;;;;3.43;3.13;;;;;;;;;;5054406;28;20217;-91
2023/04/27 10:27:40;;;;;;;3.33;3.07;;;;;;;;;;5054914;28;20263;-91
2023/04/27 10:30:12;;;;;;;2.90;2.70;;;;;;;;;;5050043;28;20222;-91
2023/04/27 10:32:50;;;;;;;3.70;2.90;;;;;;;;;;5046983;28;20201;-92
2023/04/27 10:35:17;;;;;;;6.23;3.23;;;;;;;;;;5022811;28;20214;-91
2023/04/27 10:37:46;;;;;;;2.83;2.63;;;;;;;;;;5035597;28;20257;-90
2023/04/27 10:40:16;;;;;;;6.10;3.40;;;;;;;;;;5054929;28;20223;-93
2023/04/27 10:42:43;;;;;;;5.67;3.63;;;;;;;;;;5053043;28;20213;-91
2023/04/27 10:45:11;;;;;;;4.37;3.70;;;;;;;;;;5034843;28;20217;-92
2023/04/27 10:47:38;;;;;;;3.07;2.77;;;;;;;;;;5037266;28;20670;-91
2023/04/27 10:50:07;;;;;;;3.60;3.30;;;;;;;;;;5054213;28;20736;-94
2023/04/27 10:52:34;;;;;;;5.33;4.30;;;;;;;;;;5054257;28;20212;-91
2023/04/27 10:55:13;;;;;;;3.07;2.60;;;;;;;;;;5054636;28;20210;-91
2023/04/27 10:57:46;;;;;;;3.10;2.73;;;;;;;;;;5050582;28;20240;-92
2023/04/27 11:00:16;;;;;;;3.10;2.80;;;;;;;;;;5034490;28;20245;-91
2023/04/27 11:02:43;;;;;;;3.27;2.20;;;;;;;;;;5053324;28;20205;-90
2023/04/27 11:05:17;;;;;;;4.47;2.50;;;;;;;;;;5054362;28;20228;-90
2023/04/27 11:07:44;;;;;;;5.10;2.87;;;;;;;;;;5047406;28;20213;-92
2023/04/27 11:10:16;;;;;;;3.27;2.70;;;;;;;;;;5048054;28;20286;-91
2023/04/27 11:12:44;;;;;;;5.80;3.17;;;;;;;;;;5057123;28;20232;-90
2023/04/27 11:15:13;;;;;;;2.80;2.60;;;;;;;;;;5053915;28;20198;-91
2023/04/27 11:17:40;;;;;;;4.33;3.13;;;;;;;;;;5042970;28;20688;-91
2023/04/27 11:20:08;;;;;;;6.33;4.13;;;;;;;;;;5053853;28;20233;-91
2023/04/27 11:22:43;;;;;;;3.93;3.20;;;;;;;;;;5053797;28;20219;-92
2023/04/27 11:25:10;;;;;;;5.60;3.03;;;;;;;;;;5050151;28;20206;-92
2023/04/27 11:27:39;;;;;;;3.73;2.90;;;;;;;;;;5044906;28;20213;-90
2023/04/27 11:30:18;;;;;;;4.20;3.80;;;;;;;;;;5036290;28;20229;-90
2023/04/27 11:32:44;;;;;;;4.30;3.40;;;;;;;;;;5046098;28;20259;-89
2023/04/27 11:35:12;;;;;;;3.73;3.43;;;;;;;;;;5053559;28;20237;-90
2023/04/27 11:37:39;;;;;;;7.50;4.43;;;;;;;;;;5040828;28;20210;-91
2023/04/27 11:40:08;;;;;;;4.97;4.00;;;;;;;;;;5046955;28;20206;-90
2023/04/27 11:42:35;;;;;;;3.87;2.97;;;;;;;;;;5047000;28;20206;-90
2023/04/27 11:45:05;;;;;;;3.40;3.10;;;;;;;;;;5053537;28;20630;-89
2023/04/27 11:47:34;;;;;;;3.93;3.30;;;;;;;;;;5053417;28;20248;-90
2023/04/27 11:50:03;;;;;;;5.20;3.23;;;;;;;;;;5052353;28;20205;-90
2023/04/27 11:52:30;;;;;;;4.47;4.07;;;;;;;;;;5038586;28;20324;-89
2023/04/27 11:54:58;;;;;;;4.40;3.37;;;;;;;;;;5041366;28;20213;-90
2023/04/27 11:57:26;;;;;;;4.33;3.43;;;;;;;;;;5053336;28;20209;-90
2023/04/27 11:59:53;;;;;;;3.27;3.00;;;;;;;;;;5053249;28;20216;-89
2023/04/27 12:02:21;;;;;;;5.23;2.60;;;;;;;;;;5039823;28;20217;-89
2023/04/27 12:04:48;;;;;;;5.40;3.30;;;;;;;;;;5044456;28;20297;-91
2023/04/27 12:07:15;;;;;;;5.13;4.30;;;;;;;;;;5048680;28;20253;-90
2023/04/27 12:09:42;;;;;;;3.60;3.20;;;;;;;;;;5053353;28;20592;-91
2023/04/27 12:12:09;;;;;;;4.53;3.90;;;;;;;;;;5050210;28;20238;-91
2023/04/27 12:14:36;;;;;;;6.30;4.30;;;;;;;;;;5042954;28;20220;-92
2023/04/27 12:17:03;;;;;;;4.30;3.90;;;;;;;;;;5039634;28;20617;-90
2023/04/27 12:19:31;;;;;;;5.53;4.17;;;;;;;;;;5052962;28;20266;-91
2023/04/27 12:21:58;;;;;;;6.17;4.17;;;;;;;;;;5039685;28;20244;-89
2023/04/27 12:24:25;;;;;;;5.27;3.43;;;;;;;;;;5052778;28;20213;-90
2023/04/27 12:26:52;;;;;;;5.43;3.10;;;;;;;;;;5052202;28;20216;-91
2023/04/27 12:29:19;;;;;;;3.87;3.50;;;;;;;;;;5052872;28;20713;-90
2023/04/27 12:31:46;;;;;;;6.83;4.27;;;;;;;;;;5048274;28;20230;-90
2023/04/27 12:34:15;;;;;;;5.23;2.50;;;;;;;;;;5043618;28;20237;-90
2023/04/27 12:36:44;;;;;;;6.93;5.03;;;;;;;;;;5039402;28;20201;-91
2023/04/27 12:39:15;;;;;;;5.37;3.93;;;;;;;;;;5052415;28;20218;-90
2023/04/27 12:41:42;;;;;;;2.97;2.77;;;;;;;;;;5052372;28;20205;-90
2023/04/27 12:44:09;;;;;;;3.60;3.30;;;;;;;;;;5039759;28;20210;-91
2023/04/27 12:46:36;;;;;;;3.30;3.10;;;;;;;;;;5051979;28;20217;-90
2023/04/27 12:49:05;;;;;;;2.90;2.70;;;;;;;;;;5052394;28;20295;-90
2023/04/27 12:51:32;;;;;;;5.23;3.10;;;;;;;;;;5052041;28;20717;-91
2023/04/27 12:54:00;;;;;;;2.93;2.60;;;;;;;;;;5053083;28;20210;-90
2023/04/27 12:56:27;;;;;;;5.33;2.80;;;;;;;;;;5045446;28;20218;-90
2023/04/27 12:58:54;;;;;;;5.80;2.90;;;;;;;;;;5046247;28;20243;-91
2023/04/27 13:01:23;;;;;;;5.10;2.90;;;;;;;;;;5052362;28;20659;-90
2023/04/27 13:03:51;;;;;;;5.50;4.10;;;;;;;;;;5050683;28;20224;-89
2023/04/27 13:06:18;;;;;;;3.40;3.10;;;;;;;;;;5040903;28;20289;-91
2023/04/27 13:08:45;;;;;;;4.50;3.87;;;;;;;;;;5052490;28;20205;-90
2023/04/27 13:11:13;;;;;;;4.83;3.53;;;;;;;;;;5051943;28;20310;-90
2023/04/27 13:13:40;;;;;;;2.50;2.30;;;;;;;;;;5049579;28;20211;-91
2023/04/27 13:16:07;;;;;;;3.27;2.97;;;;;;;;;;5032509;28;20219;-89
2023/04/27 13:18:34;;;;;;;4.90;2.87;;;;;;;;;;5048186;28;20209;-90
2023/04/27 13:21:03;;;;;;;3.27;3.03;;;;;;;;;;5042648;28;20213;-89
2023/04/27 13:23:30;;;;;;;3.43;3.00;;;;;;;;;;5035768;28;20202;-90
2023/04/27 13:25:57;;;;;;;2.50;2.40;;;;;;;;;;5051501;28;20208;-90
2023/04/27 13:28:26;;;;;;;2.40;2.20;;;;;;;;;;5051856;28;20215;-90
2023/04/27 13:30:52;;;;;;;2.37;1.97;;;;;;;;;;5051234;28;20680;-90
2023/04/27 13:33:19;;;;;;;2.33;2.10;;;;;;;;;;5051502;28;20601;-89
2023/04/27 13:35:46;;;;;;;2.90;2.63;;;;;;;;;;5041789;28;20285;-90
2023/04/27 13:38:13;;;;;;;5.30;3.10;;;;;;;;;;5049369;28;20220;-90
2023/04/27 13:40:40;;;;;;;3.10;2.80;;;;;;;;;;5051840;28;20243;-90
2023/04/27 13:43:07;;;;;;;2.73;2.50;;;;;;;;;;5038656;28;20208;-89
2023/04/27 13:45:35;;;;;;;2.67;2.47;;;;;;;;;;5051884;28;20224;-89
2023/04/27 13:48:02;;;;;;;7.27;2.73;;;;;;;;;;5050186;28;20214;-89
2023/04/27 13:50:29;;;;;;;2.57;2.10;;;;;;;;;;5047072;28;20695;-90
2023/04/27 13:52:56;;;;;;;2.53;2.33;;;;;;;;;;5055521;28;20319;-90
2023/04/27 13:55:23;;;;;;;2.27;2.03;;;;;;;;;;5055199;28;20216;-89
2023/04/27 13:57:49;;;;;;;2.90;2.23;;;;;;;;;;5055284;28;20214;-89
2023/04/27 14:00:17;;;;;;;3.97;2.70;;;;;;;;;;5055552;28;20217;-91
2023/04/27 14:02:45;;;;;;;4.33;2.90;;;;;;;;;;5042557;28;20579;-90
2023/04/27 14:05:12;;;;;;;4.57;2.20;;;;;;;;;;5055036;28;20210;-90
2023/04/27 14:07:38;;;;;;;3.27;2.23;;;;;;;;;;5042096;28;20279;-90
2023/04/27 14:10:07;;;;;;;2.40;2.20;;;;;;;;;;5054958;28;20221;-90
2023/04/27 14:12:34;;;;;;;4.07;3.33;;;;;;;;;;5054895;28;20260;-89
2023/04/27 14:15:01;;;;;;;7.50;5.00;;;;;;;;;;5042286;28;20214;-90
2023/04/27 14:17:28;;;;;;;3.83;3.53;;;;;;;;;;5054758;28;20198;-89
2023/04/27 14:19:56;;;;;;;5.53;4.37;;;;;;;;;;5054664;28;20259;-89
2023/04/27 14:22:23;;;;;;;3.13;2.77;;;;;;;;;;5054706;28;20287;-89
2023/04/27 14:24:50;;;;;;;4.93;2.37;;;;;;;;;;5054930;28;20209;-88
2023/04/27 14:27:17;;;;;;;5.10;4.60;;;;;;;;;;5046773;28;20210;-89
2023/04/27 14:29:44;;;;;;;4.27;2.70;;;;;;;;;;5049658;28;20206;-88
2023/04/27 14:32:11;;;;;;;3.10;2.30;;;;;;;;;;5054864;28;20225;-88
2023/04/27 14:34:38;;;;;;;2.90;2.60;;;;;;;;;;5039363;28;20369;-88
2023/04/27 14:37:06;;;;;;;3.70;2.70;;;;;;;;;;5043066;28;20224;-88
2023/04/27 14:39:36;;;;;;;3.07;2.80;;;;;;;;;;5041157;28;20222;-89
2023/04/27 14:42:03;;;;;;;2.30;2.20;;;;;;;;;;5045379;28;20284;-88
2023/04/27 14:44:31;;;;;;;1.87;1.77;;;;;;;;;;5051133;28;20677;-89
2023/04/27 14:46:58;;;;;;;2.67;2.47;;;;;;;;;;5054573;28;20214;-88
2023/04/27 14:49:25;;;;;;;3.37;2.57;;;;;;;;;;5054634;28;20662;-89
2023/04/27 14:51:51;;;;;;;3.80;3.50;;;;;;;;;;5054167;28;20229;-89
2023/04/27 14:54:20;;;;;;;3.23;2.63;;;;;;;;;;5041376;28;20240;-90
2023/04/27 14:56:46;;;;;;;6.23;2.50;;;;;;;;;;5044986;28;20655;-89
2023/04/27 14:59:13;;;;;;;2.87;2.30;;;;;;;;;;5037787;28;20233;-89
2023/04/27 15:01:40;;;;;;;4.47;2.83;;;;;;;;;;5054375;28;20559;-89
2023/04/27 15:04:10;;;;;;;2.13;1.93;;;;;;;;;;5054275;28;20749;-90
2023/04/27 15:06:39;;;;;;;2.80;2.33;;;;;;;;;;5054365;28;20275;-89
2023/04/27 15:09:06;;;;;;;6.20;2.70;;;;;;;;;;5040863;28;20265;-90
2023/04/27 15:11:34;;;;;;;3.57;2.40;;;;;;;;;;5054073;28;20218;-91
2023/04/27 15:14:04;;;;;;;3.73;2.30;;;;;;;;;;5040521;28;20238;-90
2023/04/27 15:16:31;;;;;;;4.90;2.80;;;;;;;;;;5041747;28;20294;-90
2023/04/27 15:18:57;;;;;;;4.53;2.90;;;;;;;;;;5047318;28;20207;-90
2023/04/27 15:21:24;;;;;;;2.53;2.03;;;;;;;;;;5046090;28;20205;-89
2023/04/27 15:23:51;;;;;;;3.57;2.97;;;;;;;;;;5047810;28;20633;-90
2023/04/27 15:26:18;;;;;;;6.33;2.70;;;;;;;;;;5047080;28;20217;-89
2023/04/27 15:28:46;;;;;;;4.60;2.30;;;;;;;;;;5020390;28;20214;-89
2023/04/27 15:31:13;;;;;;;2.93;2.47;;;;;;;;;;5046040;28;20203;-89
2023/04/27 15:33:40;;;;;;;6.60;3.80;;;;;;;;;;5047180;28;20234;-90
2023/04/27 15:36:07;;;;;;;4.47;3.30;;;;;;;;;;5037668;28;20213;-90
2023/04/27 15:38:35;;;;;;;7.30;4.73;;;;;;;;;;5053411;28;20210;-89
2023/04/27 15:41:01;;;;;;;6.17;4.00;;;;;;;;;;5049275;28;20250;-88